sensor_id;sensor_type;location;lat;lon;timestamp;P1;durP1;ratioP1;P2;durP2;ratioP2
34711;SDS011;20941;42.408;25.634;2023-07-28T00:01:12;1280.88;;;965.40;;
34711;SDS011;20941;42.408;25.634;2023-07-28T00:03:38;1278.38;;;963.55;;
34711;SDS011;20941;42.408;25.634;2023-07-28T00:06:03;1286.28;;;965.47;;
34711;SDS011;20941;42.408;25.634;2023-07-28T00:08:28;1280.95;;;964.97;;
34711;SDS011;20941;42.408;25.634;2023-07-28T00:10:54;1273.32;;;960.78;;
34711;SDS011;20941;42.408;25.634;2023-07-28T00:13:19;1271.90;;;962.03;;
34711;SDS011;20941;42.408;25.634;2023-07-28T00:15:44;1285.60;;;967.35;;
34711;SDS011;20941;42.408;25.634;2023-07-28T00:18:10;1275.03;;;962.78;;
34711;SDS011;20941;42.408;25.634;2023-07-28T00:20:35;1284.90;;;965.10;;
34711;SDS011;20941;42.408;25.634;2023-07-28T00:23:00;1296.53;;;968.78;;
34711;SDS011;20941;42.408;25.634;2023-07-28T00:25:26;1296.40;;;968.33;;
34711;SDS011;20941;42.408;25.634;2023-07-28T00:27:51;1290.03;;;966.17;;
34711;SDS011;20941;42.408;25.634;2023-07-28T00:30:16;1287.20;;;965.58;;
34711;SDS011;20941;42.408;25.634;2023-07-28T00:32:41;1286.47;;;964.08;;
34711;SDS011;20941;42.408;25.634;2023-07-28T00:35:07;1289.35;;;964.45;;
34711;SDS011;20941;42.408;25.634;2023-07-28T00:37:32;1288.15;;;965.88;;
34711;SDS011;20941;42.408;25.634;2023-07-28T00:39:58;1285.97;;;965.83;;
34711;SDS011;20941;42.408;25.634;2023-07-28T00:42:23;1279.88;;;961.13;;
34711;SDS011;20941;42.408;25.634;2023-07-28T00:44:48;1291.30;;;966.70;;
34711;SDS011;20941;42.408;25.634;2023-07-28T00:47:14;1282.00;;;962.75;;
34711;SDS011;20941;42.408;25.634;2023-07-28T00:49:39;1285.22;;;964.10;;
34711;SDS011;20941;42.408;25.634;2023-07-28T00:52:06;1282.47;;;963.03;;
34711;SDS011;20941;42.408;25.634;2023-07-28T00:54:32;1286.22;;;965.03;;
34711;SDS011;20941;42.408;25.634;2023-07-28T00:56:57;1281.57;;;963.67;;
34711;SDS011;20941;42.408;25.634;2023-07-28T00:59:22;1279.13;;;962.88;;
34711;SDS011;20941;42.408;25.634;2023-07-28T01:01:48;1278.07;;;963.47;;
34711;SDS011;20941;42.408;25.634;2023-07-28T01:04:13;1276.85;;;963.08;;
34711;SDS011;20941;42.408;25.634;2023-07-28T01:09:11;1282.93;;;963.90;;
34711;SDS011;20941;42.408;25.634;2023-07-28T01:11:52;1277.90;;;959.85;;
34711;SDS011;20941;42.408;25.634;2023-07-28T01:14:17;1280.72;;;962.47;;
34711;SDS011;20941;42.408;25.634;2023-07-28T01:16:42;1282.75;;;961.05;;
34711;SDS011;20941;42.408;25.634;2023-07-28T01:19:08;1282.63;;;961.85;;
34711;SDS011;20941;42.408;25.634;2023-07-28T01:21:34;1287.25;;;960.92;;
34711;SDS011;20941;42.408;25.634;2023-07-28T01:24:11;1289.78;;;964.28;;
34711;SDS011;20941;42.408;25.634;2023-07-28T01:26:40;1293.72;;;966.25;;
34711;SDS011;20941;42.408;25.634;2023-07-28T01:29:06;1292.93;;;963.15;;
34711;SDS011;20941;42.408;25.634;2023-07-28T01:31:31;1293.60;;;966.67;;
34711;SDS011;20941;42.408;25.634;2023-07-28T01:33:57;1292.13;;;966.80;;
34711;SDS011;20941;42.408;25.634;2023-07-28T01:36:22;1290.15;;;965.45;;
34711;SDS011;20941;42.408;25.634;2023-07-28T01:38:48;1281.38;;;962.10;;
34711;SDS011;20941;42.408;25.634;2023-07-28T01:41:13;1278.65;;;959.45;;
34711;SDS011;20941;42.408;25.634;2023-07-28T01:43:38;1287.45;;;966.40;;
34711;SDS011;20941;42.408;25.634;2023-07-28T01:46:04;1283.30;;;964.05;;
34711;SDS011;20941;42.408;25.634;2023-07-28T01:48:29;1286.60;;;964.15;;
34711;SDS011;20941;42.408;25.634;2023-07-28T01:50:54;1278.63;;;963.70;;
34711;SDS011;20941;42.408;25.634;2023-07-28T01:53:20;1288.07;;;966.50;;
34711;SDS011;20941;42.408;25.634;2023-07-28T01:55:45;1287.10;;;966.28;;
34711;SDS011;20941;42.408;25.634;2023-07-28T01:58:11;1281.30;;;964.35;;
34711;SDS011;20941;42.408;25.634;2023-07-28T02:00:36;1290.57;;;969.05;;
34711;SDS011;20941;42.408;25.634;2023-07-28T02:03:02;1289.40;;;967.85;;
34711;SDS011;20941;42.408;25.634;2023-07-28T02:05:28;1288.22;;;966.03;;
34711;SDS011;20941;42.408;25.634;2023-07-28T02:07:54;1290.60;;;967.97;;
34711;SDS011;20941;42.408;25.634;2023-07-28T02:10:21;1283.38;;;967.40;;
34711;SDS011;20941;42.408;25.634;2023-07-28T02:12:47;1297.38;;;968.42;;
34711;SDS011;20941;42.408;25.634;2023-07-28T02:15:13;1283.40;;;964.33;;
34711;SDS011;20941;42.408;25.634;2023-07-28T02:17:39;1288.88;;;966.35;;
34711;SDS011;20941;42.408;25.634;2023-07-28T02:20:04;1288.13;;;966.08;;
34711;SDS011;20941;42.408;25.634;2023-07-28T02:22:30;1292.60;;;967.80;;
34711;SDS011;20941;42.408;25.634;2023-07-28T02:24:55;1290.22;;;966.08;;
34711;SDS011;20941;42.408;25.634;2023-07-28T02:27:21;1287.72;;;965.17;;
34711;SDS011;20941;42.408;25.634;2023-07-28T02:29:46;1299.28;;;967.45;;
34711;SDS011;20941;42.408;25.634;2023-07-28T02:32:12;1292.07;;;968.00;;
34711;SDS011;20941;42.408;25.634;2023-07-28T02:34:38;1286.60;;;965.67;;
34711;SDS011;20941;42.408;25.634;2023-07-28T02:37:03;1290.28;;;967.65;;
34711;SDS011;20941;42.408;25.634;2023-07-28T02:39:29;1290.45;;;967.92;;
34711;SDS011;20941;42.408;25.634;2023-07-28T02:41:54;1275.20;;;968.20;;
34711;SDS011;20941;42.408;25.634;2023-07-28T02:44:19;1279.47;;;971.00;;
34711;SDS011;20941;42.408;25.634;2023-07-28T02:46:45;1276.05;;;969.53;;
34711;SDS011;20941;42.408;25.634;2023-07-28T02:49:10;1280.80;;;965.70;;
34711;SDS011;20941;42.408;25.634;2023-07-28T02:51:36;1282.55;;;967.50;;
34711;SDS011;20941;42.408;25.634;2023-07-28T02:54:01;1281.07;;;965.88;;
34711;SDS011;20941;42.408;25.634;2023-07-28T02:56:26;1285.88;;;963.83;;
34711;SDS011;20941;42.408;25.634;2023-07-28T02:58:52;1271.90;;;967.42;;
34711;SDS011;20941;42.408;25.634;2023-07-28T03:01:17;1281.28;;;964.95;;
34711;SDS011;20941;42.408;25.634;2023-07-28T03:03:43;1279.82;;;965.22;;
34711;SDS011;20941;42.408;25.634;2023-07-28T03:06:08;1275.45;;;965.80;;
34711;SDS011;20941;42.408;25.634;2023-07-28T03:08:33;1285.97;;;964.45;;
34711;SDS011;20941;42.408;25.634;2023-07-28T03:10:59;1283.70;;;966.38;;
34711;SDS011;20941;42.408;25.634;2023-07-28T03:13:27;1283.82;;;965.03;;
34711;SDS011;20941;42.408;25.634;2023-07-28T03:15:52;1292.95;;;966.58;;
34711;SDS011;20941;42.408;25.634;2023-07-28T03:18:18;1299.68;;;971.05;;
34711;SDS011;20941;42.408;25.634;2023-07-28T03:20:43;1296.97;;;968.97;;
34711;SDS011;20941;42.408;25.634;2023-07-28T03:23:08;1293.05;;;971.38;;
34711;SDS011;20941;42.408;25.634;2023-07-28T03:25:34;1285.35;;;971.35;;
34711;SDS011;20941;42.408;25.634;2023-07-28T03:27:59;1283.80;;;968.92;;
34711;SDS011;20941;42.408;25.634;2023-07-28T03:30:24;1287.25;;;972.83;;
34711;SDS011;20941;42.408;25.634;2023-07-28T03:32:50;1288.82;;;972.97;;
34711;SDS011;20941;42.408;25.634;2023-07-28T03:35:15;1295.38;;;971.67;;
34711;SDS011;20941;42.408;25.634;2023-07-28T03:37:41;1285.50;;;972.45;;
34711;SDS011;20941;42.408;25.634;2023-07-28T03:40:06;1294.65;;;969.55;;
34711;SDS011;20941;42.408;25.634;2023-07-28T03:42:32;1294.28;;;973.20;;
34711;SDS011;20941;42.408;25.634;2023-07-28T03:44:57;1289.93;;;968.65;;
34711;SDS011;20941;42.408;25.634;2023-07-28T03:47:23;1286.13;;;968.53;;
34711;SDS011;20941;42.408;25.634;2023-07-28T03:49:49;1284.32;;;970.05;;
34711;SDS011;20941;42.408;25.634;2023-07-28T03:52:14;1292.95;;;971.20;;
34711;SDS011;20941;42.408;25.634;2023-07-28T03:54:39;1292.25;;;971.25;;
34711;SDS011;20941;42.408;25.634;2023-07-28T03:57:05;1295.88;;;974.15;;
34711;SDS011;20941;42.408;25.634;2023-07-28T03:59:30;1298.53;;;973.40;;
34711;SDS011;20941;42.408;25.634;2023-07-28T04:01:55;1301.75;;;971.38;;
34711;SDS011;20941;42.408;25.634;2023-07-28T04:04:21;1292.15;;;970.72;;
34711;SDS011;20941;42.408;25.634;2023-07-28T04:06:47;1283.78;;;979.45;;
34711;SDS011;20941;42.408;25.634;2023-07-28T04:09:15;1293.72;;;985.00;;
34711;SDS011;20941;42.408;25.634;2023-07-28T04:11:40;1295.85;;;983.33;;
34711;SDS011;20941;42.408;25.634;2023-07-28T04:14:06;1310.10;;;984.00;;
34711;SDS011;20941;42.408;25.634;2023-07-28T04:16:32;1302.88;;;984.78;;
34711;SDS011;20941;42.408;25.634;2023-07-28T04:18:57;1301.32;;;986.03;;
34711;SDS011;20941;42.408;25.634;2023-07-28T04:21:22;1304.55;;;982.35;;
34711;SDS011;20941;42.408;25.634;2023-07-28T04:23:48;1300.45;;;983.92;;
34711;SDS011;20941;42.408;25.634;2023-07-28T04:26:13;1304.53;;;980.10;;
34711;SDS011;20941;42.408;25.634;2023-07-28T04:28:38;1304.80;;;980.72;;
34711;SDS011;20941;42.408;25.634;2023-07-28T04:31:04;1302.57;;;980.55;;
34711;SDS011;20941;42.408;25.634;2023-07-28T04:33:30;1304.75;;;980.28;;
34711;SDS011;20941;42.408;25.634;2023-07-28T04:35:55;1311.95;;;978.70;;
34711;SDS011;20941;42.408;25.634;2023-07-28T04:38:21;1296.07;;;976.17;;
34711;SDS011;20941;42.408;25.634;2023-07-28T04:40:46;1303.18;;;982.13;;
34711;SDS011;20941;42.408;25.634;2023-07-28T04:43:11;1262.72;;;976.38;;
34711;SDS011;20941;42.408;25.634;2023-07-28T04:45:36;1275.32;;;978.67;;
34711;SDS011;20941;42.408;25.634;2023-07-28T04:48:02;1272.00;;;977.20;;
34711;SDS011;20941;42.408;25.634;2023-07-28T04:50:28;1280.95;;;978.20;;
34711;SDS011;20941;42.408;25.634;2023-07-28T04:52:53;1278.57;;;978.50;;
34711;SDS011;20941;42.408;25.634;2023-07-28T04:55:19;1268.47;;;976.72;;
34711;SDS011;20941;42.408;25.634;2023-07-28T04:57:44;1273.78;;;978.45;;
34711;SDS011;20941;42.408;25.634;2023-07-28T05:00:10;1277.25;;;981.53;;
34711;SDS011;20941;42.408;25.634;2023-07-28T05:02:35;1271.97;;;979.65;;
34711;SDS011;20941;42.408;25.634;2023-07-28T05:05:01;1277.60;;;978.17;;
34711;SDS011;20941;42.408;25.634;2023-07-28T05:07:26;1276.40;;;982.97;;
34711;SDS011;20941;42.408;25.634;2023-07-28T05:09:51;1273.15;;;979.03;;
34711;SDS011;20941;42.408;25.634;2023-07-28T05:12:17;1282.57;;;978.83;;
34711;SDS011;20941;42.408;25.634;2023-07-28T05:14:42;1281.45;;;979.70;;
34711;SDS011;20941;42.408;25.634;2023-07-28T05:17:07;1277.40;;;981.22;;
34711;SDS011;20941;42.408;25.634;2023-07-28T05:19:33;1271.20;;;980.97;;
34711;SDS011;20941;42.408;25.634;2023-07-28T05:21:58;1271.68;;;979.40;;
34711;SDS011;20941;42.408;25.634;2023-07-28T05:24:24;1260.85;;;978.92;;
34711;SDS011;20941;42.408;25.634;2023-07-28T05:26:49;1249.85;;;970.42;;
34711;SDS011;20941;42.408;25.634;2023-07-28T05:29:14;1255.53;;;974.33;;
34711;SDS011;20941;42.408;25.634;2023-07-28T05:31:39;1252.70;;;972.13;;
34711;SDS011;20941;42.408;25.634;2023-07-28T05:34:05;1270.90;;;979.75;;
34711;SDS011;20941;42.408;25.634;2023-07-28T05:36:30;1270.10;;;978.80;;
34711;SDS011;20941;42.408;25.634;2023-07-28T05:38:57;1261.35;;;977.55;;
34711;SDS011;20941;42.408;25.634;2023-07-28T05:41:22;1272.72;;;979.63;;
34711;SDS011;20941;42.408;25.634;2023-07-28T05:43:47;1256.63;;;975.17;;
34711;SDS011;20941;42.408;25.634;2023-07-28T05:46:13;1263.20;;;979.05;;
34711;SDS011;20941;42.408;25.634;2023-07-28T05:48:39;1257.75;;;970.88;;
34711;SDS011;20941;42.408;25.634;2023-07-28T05:51:04;1253.78;;;973.70;;
34711;SDS011;20941;42.408;25.634;2023-07-28T05:53:29;1239.78;;;964.78;;
34711;SDS011;20941;42.408;25.634;2023-07-28T05:55:55;1265.15;;;980.05;;
34711;SDS011;20941;42.408;25.634;2023-07-28T05:58:20;1254.65;;;973.13;;
34711;SDS011;20941;42.408;25.634;2023-07-28T06:00:45;1227.85;;;956.20;;
34711;SDS011;20941;42.408;25.634;2023-07-28T06:03:11;1208.75;;;937.25;;
34711;SDS011;20941;42.408;25.634;2023-07-28T06:05:39;1216.25;;;941.03;;
34711;SDS011;20941;42.408;25.634;2023-07-28T06:08:08;1252.30;;;969.10;;
34711;SDS011;20941;42.408;25.634;2023-07-28T06:10:33;1243.40;;;966.90;;
34711;SDS011;20941;42.408;25.634;2023-07-28T06:12:58;1251.07;;;966.75;;
34711;SDS011;20941;42.408;25.634;2023-07-28T06:15:24;1240.18;;;957.95;;
34711;SDS011;20941;42.408;25.634;2023-07-28T06:17:49;1242.38;;;960.22;;
34711;SDS011;20941;42.408;25.634;2023-07-28T06:20:15;1187.38;;;913.15;;
34711;SDS011;20941;42.408;25.634;2023-07-28T06:22:40;1235.50;;;950.08;;
34711;SDS011;20941;42.408;25.634;2023-07-28T06:25:05;1188.97;;;913.25;;
34711;SDS011;20941;42.408;25.634;2023-07-28T06:27:31;1202.40;;;922.03;;
34711;SDS011;20941;42.408;25.634;2023-07-28T06:29:56;1234.75;;;948.80;;
34711;SDS011;20941;42.408;25.634;2023-07-28T06:32:22;1241.72;;;944.55;;
34711;SDS011;20941;42.408;25.634;2023-07-28T06:34:48;1132.25;;;866.60;;
34711;SDS011;20941;42.408;25.634;2023-07-28T06:37:14;1184.18;;;902.45;;
34711;SDS011;20941;42.408;25.634;2023-07-28T06:39:39;1164.65;;;889.80;;
34711;SDS011;20941;42.408;25.634;2023-07-28T06:42:05;1207.18;;;918.63;;
34711;SDS011;20941;42.408;25.634;2023-07-28T06:44:31;1167.65;;;888.85;;
34711;SDS011;20941;42.408;25.634;2023-07-28T06:46:56;1172.68;;;891.70;;
34711;SDS011;20941;42.408;25.634;2023-07-28T06:49:21;1127.97;;;857.88;;
34711;SDS011;20941;42.408;25.634;2023-07-28T06:51:47;1107.03;;;843.13;;
34711;SDS011;20941;42.408;25.634;2023-07-28T06:54:12;1146.43;;;871.28;;
34711;SDS011;20941;42.408;25.634;2023-07-28T06:56:38;1061.93;;;813.60;;
34711;SDS011;20941;42.408;25.634;2023-07-28T06:59:03;1123.68;;;854.72;;
34711;SDS011;20941;42.408;25.634;2023-07-28T07:01:28;1119.05;;;842.53;;
34711;SDS011;20941;42.408;25.634;2023-07-28T07:03:54;1130.72;;;856.67;;
34711;SDS011;20941;42.408;25.634;2023-07-28T07:06:19;1213.03;;;931.72;;
34711;SDS011;20941;42.408;25.634;2023-07-28T07:08:45;1138.43;;;879.05;;
34711;SDS011;20941;42.408;25.634;2023-07-28T07:11:10;1156.93;;;893.58;;
34711;SDS011;20941;42.408;25.634;2023-07-28T07:13:36;1130.55;;;873.70;;
34711;SDS011;20941;42.408;25.634;2023-07-28T07:16:01;1137.00;;;879.63;;
34711;SDS011;20941;42.408;25.634;2023-07-28T07:18:27;1089.35;;;843.85;;
34711;SDS011;20941;42.408;25.634;2023-07-28T07:20:52;1038.28;;;809.25;;
34711;SDS011;20941;42.408;25.634;2023-07-28T07:23:18;1092.93;;;854.38;;
34711;SDS011;20941;42.408;25.634;2023-07-28T07:25:44;1101.82;;;857.90;;
34711;SDS011;20941;42.408;25.634;2023-07-28T07:28:09;992.55;;;774.58;;
34711;SDS011;20941;42.408;25.634;2023-07-28T07:30:34;967.63;;;754.20;;
34711;SDS011;20941;42.408;25.634;2023-07-28T07:33:00;928.25;;;720.42;;
34711;SDS011;20941;42.408;25.634;2023-07-28T07:35:25;1022.28;;;801.42;;
34711;SDS011;20941;42.408;25.634;2023-07-28T07:37:50;1053.57;;;827.13;;
34711;SDS011;20941;42.408;25.634;2023-07-28T07:40:16;1094.82;;;859.45;;
34711;SDS011;20941;42.408;25.634;2023-07-28T07:42:47;1096.68;;;860.05;;
34711;SDS011;20941;42.408;25.634;2023-07-28T07:45:13;1075.80;;;843.90;;
34711;SDS011;20941;42.408;25.634;2023-07-28T07:47:40;1055.65;;;829.30;;
34711;SDS011;20941;42.408;25.634;2023-07-28T07:50:06;1079.38;;;841.53;;
34711;SDS011;20941;42.408;25.634;2023-07-28T07:52:31;1056.07;;;824.83;;
34711;SDS011;20941;42.408;25.634;2023-07-28T07:54:57;1045.45;;;820.05;;
34711;SDS011;20941;42.408;25.634;2023-07-28T07:57:22;1044.25;;;815.42;;
34711;SDS011;20941;42.408;25.634;2023-07-28T07:59:47;1025.60;;;803.70;;
34711;SDS011;20941;42.408;25.634;2023-07-28T08:02:13;952.78;;;739.63;;
34711;SDS011;20941;42.408;25.634;2023-07-28T08:04:38;1018.13;;;796.50;;
34711;SDS011;20941;42.408;25.634;2023-07-28T08:07:04;913.85;;;705.42;;
34711;SDS011;20941;42.408;25.634;2023-07-28T08:09:30;870.05;;;660.90;;
34711;SDS011;20941;42.408;25.634;2023-07-28T08:11:55;892.90;;;681.78;;
34711;SDS011;20941;42.408;25.634;2023-07-28T08:14:21;963.40;;;751.25;;
34711;SDS011;20941;42.408;25.634;2023-07-28T08:16:46;945.33;;;732.65;;
34711;SDS011;20941;42.408;25.634;2023-07-28T08:19:12;932.13;;;719.55;;
34711;SDS011;20941;42.408;25.634;2023-07-28T08:21:37;942.28;;;726.85;;
34711;SDS011;20941;42.408;25.634;2023-07-28T08:24:03;956.47;;;736.00;;
34711;SDS011;20941;42.408;25.634;2023-07-28T08:26:29;1037.57;;;803.30;;
34711;SDS011;20941;42.408;25.634;2023-07-28T08:28:54;958.55;;;739.80;;
34711;SDS011;20941;42.408;25.634;2023-07-28T08:31:19;990.17;;;766.85;;
34711;SDS011;20941;42.408;25.634;2023-07-28T08:33:45;1056.18;;;818.97;;
34711;SDS011;20941;42.408;25.634;2023-07-28T08:36:10;1079.07;;;834.50;;
34711;SDS011;20941;42.408;25.634;2023-07-28T08:38:35;995.95;;;775.30;;
34711;SDS011;20941;42.408;25.634;2023-07-28T08:41:01;1006.70;;;782.63;;
34711;SDS011;20941;42.408;25.634;2023-07-28T08:43:26;1015.42;;;788.97;;
34711;SDS011;20941;42.408;25.634;2023-07-28T08:45:52;1038.22;;;807.95;;
34711;SDS011;20941;42.408;25.634;2023-07-28T08:48:19;972.97;;;748.92;;
34711;SDS011;20941;42.408;25.634;2023-07-28T08:50:44;939.20;;;720.38;;
34711;SDS011;20941;42.408;25.634;2023-07-28T08:53:10;981.33;;;755.40;;
34711;SDS011;20941;42.408;25.634;2023-07-28T08:55:35;1025.63;;;793.10;;
34711;SDS011;20941;42.408;25.634;2023-07-28T08:58:20;996.20;;;767.45;;
34711;SDS011;20941;42.408;25.634;2023-07-28T09:00:49;1011.38;;;783.42;;
34711;SDS011;20941;42.408;25.634;2023-07-28T09:03:15;1072.07;;;827.28;;
34711;SDS011;20941;42.408;25.634;2023-07-28T09:05:42;1014.03;;;780.55;;
34711;SDS011;20941;42.408;25.634;2023-07-28T09:08:07;994.75;;;767.85;;
34711;SDS011;20941;42.408;25.634;2023-07-28T09:13:11;1095.00;;;839.92;;
34711;SDS011;20941;42.408;25.634;2023-07-28T09:15:39;960.33;;;736.63;;
34711;SDS011;20941;42.408;25.634;2023-07-28T09:18:11;952.42;;;728.10;;
34711;SDS011;20941;42.408;25.634;2023-07-28T09:20:37;918.65;;;696.72;;
34711;SDS011;20941;42.408;25.634;2023-07-28T09:23:03;965.55;;;739.17;;
34711;SDS011;20941;42.408;25.634;2023-07-28T09:25:30;948.38;;;723.17;;
34711;SDS011;20941;42.408;25.634;2023-07-28T09:27:55;946.40;;;719.30;;
34711;SDS011;20941;42.408;25.634;2023-07-28T09:30:21;918.25;;;693.53;;
34711;SDS011;20941;42.408;25.634;2023-07-28T09:32:48;940.22;;;713.33;;
34711;SDS011;20941;42.408;25.634;2023-07-28T09:35:14;892.67;;;660.90;;
34711;SDS011;20941;42.408;25.634;2023-07-28T09:37:41;894.95;;;667.03;;
34711;SDS011;20941;42.408;25.634;2023-07-28T09:40:10;919.85;;;690.35;;
34711;SDS011;20941;42.408;25.634;2023-07-28T09:42:41;961.70;;;729.88;;
34711;SDS011;20941;42.408;25.634;2023-07-28T09:45:07;964.28;;;728.67;;
34711;SDS011;20941;42.408;25.634;2023-07-28T09:47:36;969.97;;;737.58;;
34711;SDS011;20941;42.408;25.634;2023-07-28T09:50:05;1006.50;;;765.60;;
34711;SDS011;20941;42.408;25.634;2023-07-28T09:52:34;902.10;;;662.50;;
34711;SDS011;20941;42.408;25.634;2023-07-28T09:55:05;820.03;;;585.30;;
34711;SDS011;20941;42.408;25.634;2023-07-28T09:57:30;809.70;;;571.35;;
34711;SDS011;20941;42.408;25.634;2023-07-28T09:59:58;800.03;;;562.85;;
34711;SDS011;20941;42.408;25.634;2023-07-28T10:02:24;797.00;;;560.13;;
34711;SDS011;20941;42.408;25.634;2023-07-28T10:04:50;818.22;;;583.22;;
34711;SDS011;20941;42.408;25.634;2023-07-28T10:07:15;747.50;;;511.63;;
34711;SDS011;20941;42.408;25.634;2023-07-28T10:09:41;841.85;;;604.92;;
34711;SDS011;20941;42.408;25.634;2023-07-28T10:12:06;818.42;;;581.58;;
34711;SDS011;20941;42.408;25.634;2023-07-28T10:14:42;828.80;;;596.08;;
34711;SDS011;20941;42.408;25.634;2023-07-28T10:17:07;800.55;;;566.63;;
34711;SDS011;20941;42.408;25.634;2023-07-28T10:19:40;775.03;;;535.45;;
34711;SDS011;20941;42.408;25.634;2023-07-28T10:22:09;775.22;;;538.63;;
34711;SDS011;20941;42.408;25.634;2023-07-28T10:24:51;751.83;;;514.05;;
34711;SDS011;20941;42.408;25.634;2023-07-28T10:27:45;732.00;;;496.50;;
34711;SDS011;20941;42.408;25.634;2023-07-28T10:30:59;574.65;;;365.33;;
34711;SDS011;20941;42.408;25.634;2023-07-28T10:33:28;497.30;;;292.73;;
34711;SDS011;20941;42.408;25.634;2023-07-28T10:35:54;660.60;;;422.17;;
34711;SDS011;20941;42.408;25.634;2023-07-28T10:38:29;710.67;;;474.27;;
34711;SDS011;20941;42.408;25.634;2023-07-28T10:41:04;761.50;;;519.58;;
34711;SDS011;20941;42.408;25.634;2023-07-28T10:43:30;748.05;;;511.35;;
34711;SDS011;20941;42.408;25.634;2023-07-28T10:45:55;729.97;;;492.83;;
34711;SDS011;20941;42.408;25.634;2023-07-28T10:48:22;763.95;;;528.63;;
34711;SDS011;20941;42.408;25.634;2023-07-28T10:50:49;740.30;;;503.42;;
34711;SDS011;20941;42.408;25.634;2023-07-28T10:53:14;657.00;;;422.08;;
34711;SDS011;20941;42.408;25.634;2023-07-28T10:55:40;649.20;;;415.90;;
34711;SDS011;20941;42.408;25.634;2023-07-28T10:58:05;599.95;;;376.05;;
34711;SDS011;20941;42.408;25.634;2023-07-28T11:00:31;652.70;;;413.10;;
34711;SDS011;20941;42.408;25.634;2023-07-28T11:02:56;611.83;;;383.98;;
34711;SDS011;20941;42.408;25.634;2023-07-28T11:05:23;755.78;;;516.50;;
34711;SDS011;20941;42.408;25.634;2023-07-28T11:07:48;729.63;;;484.15;;
34711;SDS011;20941;42.408;25.634;2023-07-28T11:10:14;744.42;;;504.08;;
34711;SDS011;20941;42.408;25.634;2023-07-28T11:12:43;734.33;;;490.17;;
34711;SDS011;20941;42.408;25.634;2023-07-28T11:15:09;713.00;;;471.77;;
34711;SDS011;20941;42.408;25.634;2023-07-28T11:17:42;719.65;;;477.85;;
34711;SDS011;20941;42.408;25.634;2023-07-28T11:20:16;709.45;;;464.92;;
34711;SDS011;20941;42.408;25.634;2023-07-28T11:25:20;289.60;;;155.10;;
34711;SDS011;20941;42.408;25.634;2023-07-28T11:27:46;425.25;;;240.85;;
34711;SDS011;20941;42.408;25.634;2023-07-28T11:30:13;475.70;;;277.02;;
34711;SDS011;20941;42.408;25.634;2023-07-28T11:32:39;518.58;;;305.50;;
34711;SDS011;20941;42.408;25.634;2023-07-28T11:35:05;551.17;;;330.15;;
34711;SDS011;20941;42.408;25.634;2023-07-28T11:37:31;582.65;;;357.77;;
34711;SDS011;20941;42.408;25.634;2023-07-28T11:39:59;624.30;;;388.10;;
34711;SDS011;20941;42.408;25.634;2023-07-28T11:42:24;683.80;;;448.60;;
34711;SDS011;20941;42.408;25.634;2023-07-28T11:44:50;754.88;;;507.95;;
34711;SDS011;20941;42.408;25.634;2023-07-28T11:47:19;805.72;;;550.40;;
34711;SDS011;20941;42.408;25.634;2023-07-28T11:49:47;804.00;;;555.78;;
34711;SDS011;20941;42.408;25.634;2023-07-28T11:52:13;804.80;;;548.65;;
34711;SDS011;20941;42.408;25.634;2023-07-28T11:54:38;846.53;;;594.83;;
34711;SDS011;20941;42.408;25.634;2023-07-28T11:57:04;826.72;;;576.92;;
34711;SDS011;20941;42.408;25.634;2023-07-28T11:59:31;836.75;;;585.80;;
34711;SDS011;20941;42.408;25.634;2023-07-28T12:04:22;850.20;;;601.28;;
34711;SDS011;20941;42.408;25.634;2023-07-28T12:09:29;973.10;;;713.95;;
34711;SDS011;20941;42.408;25.634;2023-07-28T12:11:56;952.20;;;696.05;;
34711;SDS011;20941;42.408;25.634;2023-07-28T12:14:34;884.42;;;633.97;;
34711;SDS011;20941;42.408;25.634;2023-07-28T12:16:59;898.22;;;638.58;;
34711;SDS011;20941;42.408;25.634;2023-07-28T12:19:25;892.60;;;639.90;;
34711;SDS011;20941;42.408;25.634;2023-07-28T12:21:51;880.88;;;626.90;;
34711;SDS011;20941;42.408;25.634;2023-07-28T12:24:16;845.55;;;587.35;;
34711;SDS011;20941;42.408;25.634;2023-07-28T12:26:41;841.70;;;583.72;;
34711;SDS011;20941;42.408;25.634;2023-07-28T12:29:07;854.70;;;603.85;;
34711;SDS011;20941;42.408;25.634;2023-07-28T12:31:32;894.17;;;640.80;;
34711;SDS011;20941;42.408;25.634;2023-07-28T12:33:58;888.50;;;633.88;;
34711;SDS011;20941;42.408;25.634;2023-07-28T12:36:23;800.13;;;547.50;;
34711;SDS011;20941;42.408;25.634;2023-07-28T12:38:48;760.38;;;512.53;;
34711;SDS011;20941;42.408;25.634;2023-07-28T12:41:14;774.17;;;526.33;;
34711;SDS011;20941;42.408;25.634;2023-07-28T12:43:39;769.15;;;521.20;;
34711;SDS011;20941;42.408;25.634;2023-07-28T12:46:05;778.35;;;526.75;;
34711;SDS011;20941;42.408;25.634;2023-07-28T12:48:30;773.33;;;523.60;;
34711;SDS011;20941;42.408;25.634;2023-07-28T12:50:55;788.00;;;537.20;;
34711;SDS011;20941;42.408;25.634;2023-07-28T12:53:21;791.55;;;543.47;;
34711;SDS011;20941;42.408;25.634;2023-07-28T12:55:46;789.85;;;541.80;;
34711;SDS011;20941;42.408;25.634;2023-07-28T12:58:11;798.70;;;544.28;;
34711;SDS011;20941;42.408;25.634;2023-07-28T13:00:37;786.17;;;535.33;;
34711;SDS011;20941;42.408;25.634;2023-07-28T13:03:06;790.17;;;538.05;;
34711;SDS011;20941;42.408;25.634;2023-07-28T13:05:31;837.22;;;590.15;;
34711;SDS011;20941;42.408;25.634;2023-07-28T13:07:57;849.92;;;591.67;;
34711;SDS011;20941;42.408;25.634;2023-07-28T13:10:22;799.38;;;548.83;;
34711;SDS011;20941;42.408;25.634;2023-07-28T13:12:47;820.35;;;564.50;;
34711;SDS011;20941;42.408;25.634;2023-07-28T13:15:13;799.67;;;545.08;;
34711;SDS011;20941;42.408;25.634;2023-07-28T13:17:38;787.45;;;538.83;;
34711;SDS011;20941;42.408;25.634;2023-07-28T13:20:04;776.40;;;526.30;;
34711;SDS011;20941;42.408;25.634;2023-07-28T13:22:29;769.47;;;519.63;;
34711;SDS011;20941;42.408;25.634;2023-07-28T13:24:55;805.22;;;548.40;;
34711;SDS011;20941;42.408;25.634;2023-07-28T13:27:20;766.15;;;513.90;;
34711;SDS011;20941;42.408;25.634;2023-07-28T13:29:46;848.65;;;586.22;;
34711;SDS011;20941;42.408;25.634;2023-07-28T13:32:15;866.13;;;602.17;;
34711;SDS011;20941;42.408;25.634;2023-07-28T13:34:41;939.00;;;665.47;;
34711;SDS011;20941;42.408;25.634;2023-07-28T13:37:06;944.53;;;673.35;;
34711;SDS011;20941;42.408;25.634;2023-07-28T13:39:32;911.05;;;638.63;;
34711;SDS011;20941;42.408;25.634;2023-07-28T13:41:57;881.30;;;612.88;;
34711;SDS011;20941;42.408;25.634;2023-07-28T13:44:22;811.60;;;550.40;;